Accueil
METAR-TAF:

METAR-TAF

Aéroports :

Aéroport international Norman-Manley de Kingston

Kingston, Jamaïque

latitude: 17-56N, longitude: 076-47W, altitude: 3 m

Observation

Le bulletin a été fait il y a 25 minutes, à 03:00 UTC
Vent 18 kt de est/sud-est
Température 27°C
Humidité 62%
Pression 1017 hPa
Visibilité 10 km ou plus
Quelques nuages à une hauteur de 2400 ft

METAR: MKJP 230300Z 11018KT 9999 FEW024 27/19 Q1017

Heure: 22:25 (03:25 UTC)

Prévision

Le bulletin a été fait il y a 4 heures et 10 minutes, à 23:15 UTC
Prévision valable du 23 à 00 UTC au 23 à 24 UTC
Vent 20 kt de sud-est avec des rafales jusqu'à 33 kt
Visibilité 10 km ou plus
Quelques nuages à une hauteur de 2400 ft
Evoluant progressivement
du 23 à 08 UTC au 23 à 10 UTC
Vent 10 kt de est
Evoluant progressivement
du 23 à 13 UTC au 23 à 15 UTC
Vent 25 kt de sud-est

TAF: MKJP 222315Z 2300/2324 13020G33KT 9999 FEW024 BECMG 2308/2310 10010KT BECMG 2313/2315 13025KT

Observations et prévisions météorologiques de plus de 4000 aéroports (messages METAR et TAF).

Les stations disponibles sont représentées par des disques jaunes et rouges sur la carte.

Passer la souris dessus pour voir le nom de la station.

Cliquer dessus pour voir les observations et prévisions météorologiques.

Pour changer de carte: cliquez sur les boutons verts avec une croix noire pour zoomer, sur le bouton vert avec un tiret pour effectuer un zoom arrière, ou sur les flèches vertes pour les cartes adjacentes.


METAR-TAF: